createdAt,value
2022-08-03T00:01:39.250Z,3.83
2022-08-03T00:04:08.060Z,3.50
2022-08-03T00:06:37.146Z,3.37
2022-08-03T00:09:07.994Z,3.40
2022-08-03T00:11:35.708Z,3.60
2022-08-03T00:14:03.730Z,3.10
2022-08-03T00:16:30.869Z,3.50
2022-08-03T00:18:57.937Z,3.40
2022-08-03T00:21:28.702Z,3.40
2022-08-03T00:23:55.889Z,3.50
2022-08-03T00:26:23.082Z,3.80
2022-08-03T00:28:50.695Z,4.20
2022-08-03T00:31:23.047Z,3.90
2022-08-03T00:34:05.987Z,3.80
2022-08-03T00:36:34.095Z,3.20
2022-08-03T00:39:01.287Z,4.30
2022-08-03T00:41:28.375Z,3.60
2022-08-03T00:43:55.393Z,4.27
2022-08-03T00:46:22.657Z,3.20
2022-08-03T00:48:54.171Z,3.50
2022-08-03T00:51:22.593Z,3.87
2022-08-03T00:53:51.110Z,4.70
2022-08-03T00:56:18.523Z,3.80
2022-08-03T00:58:47.449Z,4.50
2022-08-03T01:01:15.666Z,3.50
2022-08-03T01:03:42.852Z,3.70
2022-08-03T01:06:32.572Z,3.80
2022-08-03T01:09:27.403Z,4.00
2022-08-03T01:12:04.425Z,3.83
2022-08-03T01:14:41.749Z,3.20
2022-08-03T01:17:47.325Z,3.40
2022-08-03T01:20:17.220Z,3.90
2022-08-03T01:22:50.201Z,3.13
2022-08-03T01:25:54.844Z,4.13
2022-08-03T01:28:41.633Z,3.47
2022-08-03T01:31:13.683Z,3.30
2022-08-03T01:33:44.218Z,3.40
2022-08-03T01:36:16.315Z,3.50
2022-08-03T01:38:54.215Z,3.50
2022-08-03T01:41:27.049Z,3.80
2022-08-03T01:44:30.066Z,3.63
2022-08-03T01:46:48.887Z,3.50
2022-08-03T01:49:18.561Z,4.03
2022-08-03T01:52:02.761Z,3.70
2022-08-03T01:54:38.179Z,3.67
2022-08-03T01:57:06.082Z,3.40
2022-08-03T01:59:35.595Z,4.03
2022-08-03T02:02:29.143Z,3.80
2022-08-03T02:04:54.460Z,3.90
2022-08-03T02:07:21.739Z,3.30
2022-08-03T02:09:52.774Z,3.47
2022-08-03T02:12:24.566Z,3.83
2022-08-03T02:14:53.195Z,3.57
2022-08-03T02:17:38.758Z,3.70
2022-08-03T02:20:09.707Z,3.30
2022-08-03T02:22:42.798Z,3.33
2022-08-03T02:25:11.780Z,3.40
2022-08-03T02:27:51.121Z,3.40
2022-08-03T02:30:19.502Z,3.63
2022-08-03T02:32:52.527Z,3.60
2022-08-03T02:35:22.939Z,3.50
2022-08-03T02:37:54.962Z,3.70
2022-08-03T02:40:24.542Z,3.63
2022-08-03T02:42:55.717Z,3.17
2022-08-03T02:45:26.466Z,3.30
2022-08-03T02:47:58.467Z,4.07
2022-08-03T02:50:27.782Z,3.53
2022-08-03T02:52:56.368Z,3.70
2022-08-03T02:55:25.466Z,3.97
2022-08-03T02:57:53.965Z,3.80
2022-08-03T03:00:28.100Z,4.53
2022-08-03T03:02:58.913Z,3.77
2022-08-03T03:05:53.197Z,3.77
2022-08-03T03:08:20.827Z,3.60
2022-08-03T03:10:56.302Z,3.70
2022-08-03T03:13:23.958Z,3.20
2022-08-03T03:15:52.382Z,3.53
2022-08-03T03:18:22.718Z,3.13
2022-08-03T03:20:52.743Z,3.70
2022-08-03T03:23:22.279Z,3.90
2022-08-03T03:25:50.236Z,4.10
2022-08-03T03:28:17.583Z,3.73
2022-08-03T03:30:45.201Z,3.73
2022-08-03T03:33:21.948Z,4.03
2022-08-03T03:35:49.322Z,3.60
2022-08-03T03:38:16.439Z,3.83
2022-08-03T03:40:44.206Z,3.50
2022-08-03T03:43:12.333Z,3.57
2022-08-03T03:45:42.960Z,3.87
2022-08-03T03:48:10.611Z,3.90
2022-08-03T03:50:41.263Z,3.50
2022-08-03T03:53:12.724Z,3.27
2022-08-03T03:55:57.804Z,3.87
2022-08-03T03:58:28.402Z,3.77
2022-08-03T04:00:55.439Z,4.80
2022-08-03T04:03:22.506Z,4.20
2022-08-03T04:06:08.234Z,3.70
2022-08-03T04:08:53.825Z,4.30
2022-08-03T04:11:32.185Z,4.10
2022-08-03T04:14:07.522Z,4.57
2022-08-03T04:16:43.952Z,4.47
2022-08-03T04:19:18.566Z,3.77
2022-08-03T04:21:53.344Z,3.60
2022-08-03T04:24:28.098Z,4.53
2022-08-03T04:26:57.760Z,4.00
2022-08-03T04:29:26.799Z,4.30
2022-08-03T04:31:55.976Z,4.00
2022-08-03T04:34:23.205Z,4.60
2022-08-03T04:36:53.283Z,4.67
2022-08-03T04:39:27.731Z,5.43
2022-08-03T04:42:06.995Z,4.83
2022-08-03T04:44:39.287Z,4.87
2022-08-03T04:47:07.490Z,5.53
2022-08-03T04:49:37.989Z,5.20
2022-08-03T04:52:07.924Z,5.30
2022-08-03T04:54:50.347Z,5.47
2022-08-03T04:57:22.219Z,6.00
2022-08-03T05:00:01.288Z,5.13
2022-08-03T05:02:30.989Z,5.90
2022-08-03T05:04:58.652Z,5.27
2022-08-03T05:07:25.737Z,5.00
2022-08-03T05:10:01.376Z,6.30
2022-08-03T05:12:32.808Z,6.13
2022-08-03T05:15:00.890Z,4.80
2022-08-03T05:17:29.050Z,4.63
2022-08-03T05:19:56.804Z,4.53
2022-08-03T05:22:24.189Z,4.30
2022-08-03T05:24:51.348Z,4.80
2022-08-03T05:27:21.895Z,4.80
2022-08-03T05:29:50.434Z,5.37
2022-08-03T05:32:18.258Z,5.10
2022-08-03T05:34:45.766Z,5.70
2022-08-03T05:37:12.792Z,6.40
2022-08-03T05:39:40.034Z,5.70
2022-08-03T05:42:07.104Z,5.20
2022-08-03T05:44:34.230Z,6.27
2022-08-03T05:47:01.211Z,5.70
2022-08-03T05:49:28.333Z,5.93
2022-08-03T05:51:59.954Z,5.87
2022-08-03T05:54:56.077Z,6.10
2022-08-03T05:57:24.513Z,5.90
2022-08-03T05:59:58.167Z,5.70
2022-08-03T06:02:27.031Z,5.30
2022-08-03T06:04:54.652Z,5.60
2022-08-03T06:07:21.719Z,5.77
2022-08-03T06:10:34.149Z,5.63
2022-08-03T06:12:36.414Z,6.00
2022-08-03T06:15:05.169Z,6.90
2022-08-03T06:17:37.685Z,6.67
2022-08-03T06:20:06.299Z,5.63
2022-08-03T06:22:33.486Z,6.87
2022-08-03T06:25:04.929Z,5.53
2022-08-03T06:27:37.041Z,5.23
2022-08-03T06:30:05.572Z,5.60
2022-08-03T06:32:33.834Z,6.20
2022-08-03T06:35:01.430Z,6.30
2022-08-03T06:37:29.016Z,5.90
2022-08-03T06:39:56.116Z,6.50
2022-08-03T06:42:23.285Z,5.57
2022-08-03T06:44:52.327Z,6.33
2022-08-03T06:47:19.365Z,6.00
2022-08-03T06:50:12.641Z,5.33
2022-08-03T06:52:38.018Z,6.03
2022-08-03T06:55:07.105Z,5.40
2022-08-03T06:57:34.165Z,5.17
2022-08-03T07:00:07.445Z,5.40
2022-08-03T07:02:39.995Z,5.20
2022-08-03T07:05:08.597Z,5.00
2022-08-03T07:07:36.067Z,4.73
2022-08-03T07:10:04.015Z,5.10
2022-08-03T07:12:32.425Z,5.13
2022-08-03T07:15:02.234Z,5.20
2022-08-03T07:17:31.998Z,4.63
2022-08-03T07:20:00.097Z,3.80
2022-08-03T07:22:27.316Z,5.00
2022-08-03T07:24:54.656Z,4.80
2022-08-03T07:27:21.704Z,4.77
2022-08-03T07:29:48.890Z,4.70
2022-08-03T07:32:16.117Z,4.67
2022-08-03T07:34:43.318Z,4.50
2022-08-03T07:37:10.285Z,4.40
2022-08-03T07:39:37.386Z,5.03
2022-08-03T07:42:04.529Z,4.53
2022-08-03T07:44:31.549Z,4.67
2022-08-03T07:46:58.651Z,4.67
2022-08-03T07:49:27.606Z,4.40
2022-08-03T07:52:13.147Z,4.40
2022-08-03T07:54:40.192Z,5.03
2022-08-03T07:57:07.211Z,5.87
2022-08-03T07:59:57.179Z,5.17
2022-08-03T08:02:22.620Z,3.90
2022-08-03T08:04:49.679Z,4.43
2022-08-03T08:07:17.340Z,4.50
2022-08-03T08:09:45.427Z,4.50
2022-08-03T08:12:15.614Z,4.80
2022-08-03T08:14:45.929Z,4.03
2022-08-03T08:17:14.612Z,4.30
2022-08-03T08:19:51.298Z,3.87
2022-08-03T08:22:29.889Z,3.73
2022-08-03T08:25:01.586Z,3.80
2022-08-03T08:28:30.841Z,4.03
2022-08-03T08:30:21.432Z,3.43
2022-08-03T08:32:49.868Z,3.40
2022-08-03T08:35:18.481Z,3.40
2022-08-03T08:37:51.175Z,2.83
2022-08-03T08:40:22.129Z,3.57
2022-08-03T08:42:58.365Z,3.90
2022-08-03T08:45:26.442Z,4.00
2022-08-03T08:48:00.336Z,3.57
2022-08-03T08:50:29.923Z,3.43
2022-08-03T08:53:01.528Z,3.30
2022-08-03T08:55:29.588Z,3.40
2022-08-03T08:58:20.764Z,3.57
2022-08-03T09:00:48.716Z,3.53
2022-08-03T09:03:26.151Z,3.40
2022-08-03T09:06:00.958Z,3.30
2022-08-03T09:08:32.236Z,3.03
2022-08-03T09:11:00.300Z,3.53
2022-08-03T09:13:27.481Z,3.30
2022-08-03T09:16:13.266Z,3.07
2022-08-03T09:18:41.719Z,2.93
2022-08-03T09:21:31.142Z,3.53
2022-08-03T09:24:02.925Z,2.97
2022-08-03T09:26:32.198Z,2.60
2022-08-03T09:29:05.913Z,2.87
2022-08-03T09:31:43.170Z,3.10
2022-08-03T09:34:16.583Z,3.10
2022-08-03T09:36:46.045Z,2.90
2022-08-03T09:39:40.467Z,3.00
2022-08-03T09:42:10.991Z,2.73
2022-08-03T09:44:47.592Z,2.50
2022-08-03T09:47:17.029Z,2.73
2022-08-03T09:49:59.144Z,2.80
2022-08-03T09:52:49.469Z,2.73
2022-08-03T09:56:31.642Z,3.10
2022-08-03T09:58:10.682Z,3.40
2022-08-03T10:00:59.956Z,3.10
2022-08-03T10:03:29.543Z,3.37
2022-08-03T10:05:59.759Z,3.00
2022-08-03T10:08:27.475Z,3.20
2022-08-03T10:10:54.939Z,3.03
2022-08-03T10:13:23.672Z,3.53
2022-08-03T10:16:21.563Z,2.83
2022-08-03T10:18:38.013Z,3.27
2022-08-03T10:21:08.750Z,2.63
2022-08-03T10:23:38.343Z,3.10
2022-08-03T10:26:08.416Z,2.67
2022-08-03T10:28:41.558Z,2.73
2022-08-03T10:31:14.419Z,2.60
2022-08-03T10:33:49.988Z,2.60
2022-08-03T10:36:24.061Z,2.40
2022-08-03T10:38:53.853Z,2.57
2022-08-03T10:41:23.659Z,2.40
2022-08-03T10:43:53.106Z,2.40
2022-08-03T10:46:21.910Z,1.93
2022-08-03T10:48:51.046Z,2.07
2022-08-03T10:51:19.386Z,2.30
2022-08-03T10:53:54.571Z,2.37
2022-08-03T10:56:57.232Z,1.70
2022-08-03T10:59:47.466Z,2.00
2022-08-03T11:02:15.689Z,2.00
2022-08-03T11:04:45.323Z,2.10
2022-08-03T11:07:25.862Z,2.20
2022-08-03T11:09:55.176Z,2.40
2022-08-03T11:12:30.880Z,2.50
2022-08-03T11:15:06.000Z,2.33
2022-08-03T11:17:46.505Z,2.23
2022-08-03T11:20:48.456Z,2.73
2022-08-03T11:23:17.733Z,2.50
2022-08-03T11:26:19.324Z,2.20
2022-08-03T11:28:47.737Z,3.00
2022-08-03T11:31:48.766Z,2.50
2022-08-03T11:34:14.594Z,2.63
2022-08-03T11:37:22.985Z,2.47
2022-08-03T11:39:53.207Z,2.00
2022-08-03T11:42:23.446Z,2.43
2022-08-03T11:44:54.427Z,2.07
2022-08-03T11:47:24.474Z,2.50
2022-08-03T11:49:55.357Z,2.10
2022-08-03T11:52:27.316Z,1.80
2022-08-03T11:54:57.063Z,2.50
2022-08-03T11:59:09.363Z,2.27
2022-08-03T12:00:25.934Z,2.13
2022-08-03T12:02:58.739Z,2.37
2022-08-03T12:05:39.631Z,2.37
2022-08-03T12:08:08.404Z,1.90
2022-08-03T12:10:36.564Z,2.17
2022-08-03T12:14:05.735Z,2.17
2022-08-03T12:15:59.383Z,2.40
2022-08-03T12:18:26.527Z,2.33
2022-08-03T12:21:03.411Z,2.03
2022-08-03T12:23:30.883Z,2.57
2022-08-03T12:26:18.106Z,2.00
2022-08-03T12:28:49.988Z,2.60
2022-08-03T12:31:17.507Z,2.50
2022-08-03T12:34:11.769Z,2.20
2022-08-03T12:36:39.330Z,2.83
2022-08-03T12:39:09.211Z,2.20
2022-08-03T12:41:41.093Z,1.90
2022-08-03T12:44:09.401Z,2.47
2022-08-03T12:46:43.927Z,2.03
2022-08-03T12:49:17.478Z,2.40
2022-08-03T12:51:44.485Z,2.40
2022-08-03T12:54:18.250Z,2.13
2022-08-03T12:57:06.646Z,2.20
2022-08-03T12:59:40.643Z,2.17
2022-08-03T13:02:21.846Z,2.07
2022-08-03T13:04:52.959Z,2.30
2022-08-03T13:07:22.142Z,2.40
2022-08-03T13:09:53.288Z,2.00
2022-08-03T13:12:25.390Z,2.40
2022-08-03T13:14:55.711Z,2.40
2022-08-03T13:17:22.965Z,1.97
2022-08-03T13:19:51.487Z,2.23
2022-08-03T13:22:22.543Z,2.10
2022-08-03T13:24:55.965Z,2.10
2022-08-03T13:28:04.119Z,1.90
2022-08-03T13:30:11.235Z,2.00
2022-08-03T13:32:38.580Z,2.30
2022-08-03T13:35:06.286Z,2.10
2022-08-03T13:37:33.500Z,2.10
2022-08-03T13:40:02.404Z,2.30
2022-08-03T13:42:31.934Z,1.93
2022-08-03T13:45:00.530Z,2.60
2022-08-03T13:47:28.032Z,2.57
2022-08-03T13:50:01.612Z,2.10
2022-08-03T13:52:33.405Z,1.93
2022-08-03T13:55:01.960Z,1.97
2022-08-03T13:58:03.394Z,2.20
2022-08-03T14:00:27.164Z,2.00
2022-08-03T14:03:09.046Z,2.07
2022-08-03T14:05:39.650Z,1.97
2022-08-03T14:08:07.514Z,2.20
2022-08-03T14:10:36.896Z,2.33
2022-08-03T14:13:05.060Z,1.80
2022-08-03T14:15:32.420Z,2.40
2022-08-03T14:18:06.809Z,1.90
2022-08-03T14:20:38.568Z,2.10
2022-08-03T14:23:14.676Z,2.37
2022-08-03T14:25:43.152Z,2.30
2022-08-03T14:28:17.167Z,2.20
2022-08-03T14:30:44.169Z,1.90
2022-08-03T14:33:11.193Z,1.73
2022-08-03T14:35:38.271Z,2.00
2022-08-03T14:38:05.319Z,1.90
2022-08-03T14:40:32.697Z,2.17
2022-08-03T14:42:59.731Z,1.90
2022-08-03T14:45:26.741Z,1.97
2022-08-03T14:50:29.129Z,2.10
2022-08-03T14:50:44.429Z,2.27
2022-08-03T14:53:17.397Z,2.20
2022-08-03T14:55:50.398Z,2.13
2022-08-03T14:58:21.411Z,2.07
2022-08-03T15:00:50.416Z,2.53
2022-08-03T15:03:20.645Z,1.80
2022-08-03T15:05:48.105Z,1.90
2022-08-03T15:08:15.286Z,2.00
2022-08-03T15:10:44.841Z,2.00
2022-08-03T15:13:15.840Z,2.00
2022-08-03T15:15:42.929Z,2.17
2022-08-03T15:18:09.976Z,2.20
2022-08-03T15:20:44.486Z,2.00
2022-08-03T15:23:14.014Z,1.80
2022-08-03T15:26:04.231Z,2.00
2022-08-03T15:28:28.176Z,1.83
2022-08-03T15:30:55.307Z,2.03
2022-08-03T15:33:22.553Z,2.10
2022-08-03T15:35:50.093Z,1.83
2022-08-03T15:38:17.563Z,1.80
2022-08-03T15:40:45.132Z,2.23
2022-08-03T15:43:12.471Z,2.00
2022-08-03T15:45:41.994Z,2.07
2022-08-03T15:48:09.508Z,1.97
2022-08-03T15:50:36.667Z,1.93
2022-08-03T15:53:04.496Z,2.20
2022-08-03T15:55:32.172Z,1.90
2022-08-03T15:59:12.709Z,1.87
2022-08-03T16:00:46.205Z,2.10
2022-08-03T16:03:13.314Z,2.10
2022-08-03T16:05:40.445Z,2.10
2022-08-03T16:08:38.298Z,2.00
2022-08-03T16:11:05.312Z,2.17
2022-08-03T16:14:14.089Z,2.10
2022-08-03T16:16:19.326Z,1.90
2022-08-03T16:18:46.325Z,1.90
2022-08-03T16:21:16.343Z,2.00
2022-08-03T16:23:47.301Z,1.80
2022-08-03T16:26:14.921Z,2.07
2022-08-03T16:28:41.965Z,2.17
2022-08-03T16:31:09.384Z,1.90
2022-08-03T16:33:36.486Z,2.20
2022-08-03T16:36:04.085Z,1.97
2022-08-03T16:38:31.706Z,1.80
2022-08-03T16:40:58.845Z,1.97
2022-08-03T16:43:26.067Z,2.00
2022-08-03T16:45:53.143Z,1.73
2022-08-03T16:48:20.340Z,2.30
2022-08-03T16:50:47.530Z,2.20
2022-08-03T16:53:15.666Z,2.47
2022-08-03T16:55:53.514Z,1.97
2022-08-03T16:58:34.801Z,2.20
2022-08-03T17:01:22.312Z,2.27
2022-08-03T17:04:02.377Z,2.00
2022-08-03T17:06:36.691Z,2.00
2022-08-03T17:09:20.776Z,2.27
2022-08-03T17:11:50.064Z,3.53
2022-08-03T17:14:21.781Z,2.20
2022-08-03T17:16:52.538Z,2.60
2022-08-03T17:19:23.415Z,2.03
2022-08-03T17:21:57.138Z,2.13
2022-08-03T17:24:33.051Z,2.10
2022-08-03T17:27:08.784Z,2.03
2022-08-03T17:29:45.136Z,1.90
2022-08-03T17:32:18.395Z,2.13
2022-08-03T17:34:49.676Z,2.07
2022-08-03T17:37:27.191Z,2.50
2022-08-03T17:40:04.436Z,2.60
2022-08-03T17:42:33.268Z,1.77
2022-08-03T17:45:03.787Z,2.10
2022-08-03T17:47:42.736Z,2.10
2022-08-03T17:50:24.410Z,2.10
2022-08-03T17:53:07.641Z,2.27
2022-08-03T17:55:56.226Z,2.00
2022-08-03T17:58:45.163Z,2.00
2022-08-03T18:02:04.308Z,1.90
2022-08-03T18:04:36.845Z,2.20
2022-08-03T18:07:12.470Z,2.30
2022-08-03T18:10:06.793Z,1.90
2022-08-03T18:12:47.284Z,1.97
2022-08-03T18:15:49.825Z,2.20
2022-08-03T18:18:32.272Z,2.20
2022-08-03T18:21:04.543Z,2.23
2022-08-03T18:23:37.177Z,2.10
2022-08-03T18:26:10.668Z,2.30
2022-08-03T18:28:41.216Z,2.50
2022-08-03T18:31:12.689Z,2.70
2022-08-03T18:34:19.856Z,2.97
2022-08-03T18:36:49.868Z,2.47
2022-08-03T18:39:19.563Z,2.80
2022-08-03T18:41:47.004Z,3.07
2022-08-03T18:44:37.610Z,3.07
2022-08-03T18:47:51.530Z,2.43
2022-08-03T18:50:48.235Z,2.63
2022-08-03T18:54:03.222Z,2.77
2022-08-03T18:56:36.274Z,2.70
2022-08-03T18:59:30.610Z,2.93
2022-08-03T19:02:05.886Z,3.00
2022-08-03T19:04:45.729Z,3.40
2022-08-03T19:07:22.176Z,3.50
2022-08-03T19:10:03.812Z,3.33
2022-08-03T19:12:42.061Z,2.90
2022-08-03T19:15:15.622Z,2.90
2022-08-03T19:17:53.346Z,3.20
2022-08-03T19:20:26.999Z,2.97
2022-08-03T19:22:57.616Z,2.77
2022-08-03T19:25:35.404Z,2.70
2022-08-03T19:28:06.348Z,2.77
2022-08-03T19:30:39.006Z,2.93
2022-08-03T19:33:14.355Z,3.23
2022-08-03T19:38:34.284Z,2.63
2022-08-03T19:41:03.745Z,2.87
2022-08-03T19:43:53.876Z,2.90
2022-08-03T19:46:31.744Z,2.83
2022-08-03T19:52:24.385Z,3.30
2022-08-03T19:55:00.803Z,3.10
2022-08-03T19:57:29.524Z,3.20
2022-08-03T19:59:57.799Z,3.10
2022-08-03T20:02:26.835Z,3.40
2022-08-03T20:04:56.146Z,3.70
2022-08-03T20:07:25.436Z,4.17
2022-08-03T20:09:56.073Z,3.73
2022-08-03T20:12:28.942Z,3.93
2022-08-03T20:14:58.269Z,3.40
2022-08-03T20:17:54.019Z,3.30
2022-08-03T20:20:18.858Z,3.67
2022-08-03T20:22:51.539Z,3.97
2022-08-03T20:25:38.334Z,3.60
2022-08-03T20:28:15.311Z,3.80
2022-08-03T20:30:47.508Z,3.70
2022-08-03T20:33:18.992Z,3.83
2022-08-03T20:35:49.349Z,3.83
2022-08-03T20:38:18.446Z,4.07
2022-08-03T20:40:47.184Z,3.90
2022-08-03T20:43:14.902Z,3.50
2022-08-03T20:45:59.882Z,3.90
2022-08-03T20:48:30.340Z,3.60
2022-08-03T20:50:57.424Z,4.20
2022-08-03T20:53:59.744Z,4.20
2022-08-03T20:56:14.858Z,3.90
2022-08-03T20:58:42.766Z,4.47
2022-08-03T21:01:18.016Z,4.00
2022-08-03T21:03:55.627Z,4.30
2022-08-03T21:06:27.668Z,4.13
2022-08-03T21:09:24.157Z,3.80
2022-08-03T21:12:05.146Z,4.07
2022-08-03T21:13:03.004Z,3.40
2022-08-03T21:13:10.080Z,2.40
2022-08-03T21:14:38.145Z,4.03
2022-08-03T21:17:25.026Z,4.03
2022-08-03T21:19:53.925Z,3.87
2022-08-03T21:22:23.124Z,3.93
2022-08-03T21:24:54.428Z,3.53
2022-08-03T21:27:24.343Z,4.13
2022-08-03T21:29:53.051Z,4.33
2022-08-03T21:32:32.292Z,4.50
2022-08-03T21:35:00.654Z,3.80
2022-08-03T21:37:28.724Z,4.13
2022-08-03T21:39:56.919Z,4.00
2022-08-03T21:42:24.542Z,3.77
2022-08-03T21:44:54.560Z,4.33
2022-08-03T21:47:23.872Z,4.17
2022-08-03T21:50:06.306Z,3.53
2022-08-03T21:52:43.366Z,4.23
2022-08-03T21:55:20.632Z,4.17
2022-08-03T21:57:52.414Z,3.50
2022-08-03T22:00:23.138Z,3.50
2022-08-03T22:02:57.353Z,3.70
2022-08-03T22:05:42.441Z,3.87
2022-08-03T22:08:10.935Z,4.00
2022-08-03T22:10:38.650Z,3.87
2022-08-03T22:13:05.911Z,3.50
2022-08-03T22:15:33.408Z,3.60
2022-08-03T22:18:03.807Z,3.90
2022-08-03T22:20:31.044Z,4.00
2022-08-03T22:23:02.746Z,3.83
2022-08-03T22:25:32.845Z,4.23
2022-08-03T22:28:03.930Z,3.43
2022-08-03T22:30:33.359Z,3.80
2022-08-03T22:33:04.459Z,4.30
2022-08-03T22:35:47.527Z,4.03
2022-08-03T22:38:17.329Z,3.97
2022-08-03T22:40:45.188Z,3.93
2022-08-03T22:43:12.258Z,3.70
2022-08-03T22:46:07.817Z,3.13
2022-08-03T22:48:27.877Z,3.83
2022-08-03T22:50:56.005Z,3.97
2022-08-03T22:53:23.126Z,3.73
2022-08-03T22:55:52.315Z,4.20
2022-08-03T22:58:21.052Z,3.57
2022-08-03T23:00:54.550Z,3.70
2022-08-03T23:03:25.860Z,3.90
2022-08-03T23:06:14.736Z,3.70
2022-08-03T23:08:44.226Z,3.00
2022-08-03T23:11:11.945Z,3.47
2022-08-03T23:13:42.155Z,3.27
2022-08-03T23:16:09.745Z,3.50
2022-08-03T23:18:39.731Z,3.43
2022-08-03T23:21:11.270Z,3.70
2022-08-03T23:23:43.934Z,3.50
2022-08-03T23:26:13.879Z,3.20
2022-08-03T23:28:45.338Z,3.40
2022-08-03T23:31:14.288Z,3.80
2022-08-03T23:33:43.225Z,2.93
2022-08-03T23:36:30.547Z,3.40
2022-08-03T23:39:01.508Z,4.27
2022-08-03T23:41:30.590Z,4.20
2022-08-03T23:44:00.990Z,3.93
2022-08-03T23:46:30.550Z,4.30
2022-08-03T23:48:59.905Z,4.60
2022-08-03T23:51:39.037Z,4.30
2022-08-03T23:54:46.510Z,4.70
2022-08-03T23:57:48.818Z,4.37
